sensor_id;sensor_type;location;lat;lon;timestamp;P1;durP1;ratioP1;P2;durP2;ratioP2
13267;SDS011;6702;47.068;15.458;2022-07-04T00:01:05;6.97;;;6.00;;
13267;SDS011;6702;47.068;15.458;2022-07-04T00:04:08;6.43;;;5.93;;
13267;SDS011;6702;47.068;15.458;2022-07-04T00:07:11;6.23;;;5.73;;
13267;SDS011;6702;47.068;15.458;2022-07-04T00:10:17;6.20;;;5.63;;
13267;SDS011;6702;47.068;15.458;2022-07-04T00:13:21;5.97;;;5.37;;
13267;SDS011;6702;47.068;15.458;2022-07-04T00:16:25;6.17;;;5.67;;
13267;SDS011;6702;47.068;15.458;2022-07-04T00:19:28;6.10;;;5.60;;
13267;SDS011;6702;47.068;15.458;2022-07-04T00:22:31;6.87;;;6.17;;
13267;SDS011;6702;47.068;15.458;2022-07-04T00:25:36;6.17;;;5.77;;
13267;SDS011;6702;47.068;15.458;2022-07-04T00:28:39;6.20;;;5.70;;
13267;SDS011;6702;47.068;15.458;2022-07-04T00:31:42;6.00;;;5.00;;
13267;SDS011;6702;47.068;15.458;2022-07-04T00:34:46;8.00;;;5.70;;
13267;SDS011;6702;47.068;15.458;2022-07-04T00:37:50;6.00;;;5.50;;
13267;SDS011;6702;47.068;15.458;2022-07-04T00:40:54;7.23;;;6.30;;
13267;SDS011;6702;47.068;15.458;2022-07-04T00:44:00;6.30;;;5.70;;
13267;SDS011;6702;47.068;15.458;2022-07-04T00:47:14;6.20;;;5.70;;
13267;SDS011;6702;47.068;15.458;2022-07-04T00:50:17;5.70;;;5.20;;
13267;SDS011;6702;47.068;15.458;2022-07-04T00:53:21;7.03;;;6.47;;
13267;SDS011;6702;47.068;15.458;2022-07-04T00:56:26;6.50;;;5.70;;
13267;SDS011;6702;47.068;15.458;2022-07-04T00:59:30;6.40;;;5.90;;
13267;SDS011;6702;47.068;15.458;2022-07-04T01:02:33;7.27;;;5.93;;
13267;SDS011;6702;47.068;15.458;2022-07-04T01:05:37;6.93;;;6.33;;
13267;SDS011;6702;47.068;15.458;2022-07-04T01:08:42;5.63;;;5.10;;
13267;SDS011;6702;47.068;15.458;2022-07-04T01:11:49;5.10;;;4.70;;
13267;SDS011;6702;47.068;15.458;2022-07-04T01:14:53;5.93;;;5.53;;
13267;SDS011;6702;47.068;15.458;2022-07-04T01:17:56;6.27;;;5.67;;
13267;SDS011;6702;47.068;15.458;2022-07-04T01:21:00;5.73;;;5.33;;
13267;SDS011;6702;47.068;15.458;2022-07-04T01:24:04;6.40;;;5.90;;
13267;SDS011;6702;47.068;15.458;2022-07-04T01:27:07;6.63;;;6.13;;
13267;SDS011;6702;47.068;15.458;2022-07-04T01:30:11;6.40;;;5.80;;
13267;SDS011;6702;47.068;15.458;2022-07-04T01:33:15;7.03;;;6.40;;
13267;SDS011;6702;47.068;15.458;2022-07-04T01:36:22;8.20;;;6.63;;
13267;SDS011;6702;47.068;15.458;2022-07-04T01:39:25;6.50;;;5.90;;
13267;SDS011;6702;47.068;15.458;2022-07-04T01:42:28;5.87;;;5.47;;
13267;SDS011;6702;47.068;15.458;2022-07-04T01:45:31;6.40;;;5.97;;
13267;SDS011;6702;47.068;15.458;2022-07-04T01:48:38;5.70;;;5.27;;
13267;SDS011;6702;47.068;15.458;2022-07-04T01:51:46;6.30;;;5.43;;
13267;SDS011;6702;47.068;15.458;2022-07-04T01:54:50;6.40;;;5.90;;
13267;SDS011;6702;47.068;15.458;2022-07-04T01:57:53;6.10;;;5.60;;
13267;SDS011;6702;47.068;15.458;2022-07-04T02:00:56;7.27;;;6.67;;
13267;SDS011;6702;47.068;15.458;2022-07-04T02:04:17;6.27;;;5.77;;
13267;SDS011;6702;47.068;15.458;2022-07-04T02:07:21;5.90;;;5.40;;
13267;SDS011;6702;47.068;15.458;2022-07-04T02:10:25;6.60;;;6.07;;
13267;SDS011;6702;47.068;15.458;2022-07-04T02:13:28;7.10;;;6.50;;
13267;SDS011;6702;47.068;15.458;2022-07-04T02:16:30;6.53;;;6.03;;
13267;SDS011;6702;47.068;15.458;2022-07-04T02:19:33;5.73;;;5.33;;
13267;SDS011;6702;47.068;15.458;2022-07-04T02:22:38;5.80;;;5.30;;
13267;SDS011;6702;47.068;15.458;2022-07-04T02:25:41;6.40;;;5.90;;
13267;SDS011;6702;47.068;15.458;2022-07-04T02:28:44;7.00;;;5.97;;
13267;SDS011;6702;47.068;15.458;2022-07-04T02:31:47;5.73;;;5.30;;
13267;SDS011;6702;47.068;15.458;2022-07-04T02:34:50;5.47;;;5.00;;
13267;SDS011;6702;47.068;15.458;2022-07-04T02:37:55;6.40;;;5.80;;
13267;SDS011;6702;47.068;15.458;2022-07-04T02:40:58;6.40;;;5.90;;
13267;SDS011;6702;47.068;15.458;2022-07-04T02:44:01;5.67;;;5.27;;
13267;SDS011;6702;47.068;15.458;2022-07-04T02:47:04;6.20;;;5.80;;
13267;SDS011;6702;47.068;15.458;2022-07-04T02:50:08;7.03;;;6.27;;
13267;SDS011;6702;47.068;15.458;2022-07-04T02:53:12;6.43;;;5.73;;
13267;SDS011;6702;47.068;15.458;2022-07-04T02:56:15;5.30;;;4.90;;
13267;SDS011;6702;47.068;15.458;2022-07-04T02:59:19;6.10;;;5.70;;
13267;SDS011;6702;47.068;15.458;2022-07-04T03:02:22;5.90;;;5.50;;
13267;SDS011;6702;47.068;15.458;2022-07-04T03:05:25;6.13;;;5.70;;
13267;SDS011;6702;47.068;15.458;2022-07-04T03:08:31;6.27;;;5.70;;
13267;SDS011;6702;47.068;15.458;2022-07-04T03:11:34;5.77;;;5.27;;
13267;SDS011;6702;47.068;15.458;2022-07-04T03:14:38;6.53;;;5.93;;
13267;SDS011;6702;47.068;15.458;2022-07-04T03:17:41;6.47;;;5.93;;
13267;SDS011;6702;47.068;15.458;2022-07-04T03:20:44;6.43;;;5.93;;
13267;SDS011;6702;47.068;15.458;2022-07-04T03:23:49;6.10;;;5.60;;
13267;SDS011;6702;47.068;15.458;2022-07-04T03:26:59;6.10;;;5.60;;
13267;SDS011;6702;47.068;15.458;2022-07-04T03:30:03;6.50;;;5.90;;
13267;SDS011;6702;47.068;15.458;2022-07-04T03:33:07;6.53;;;5.90;;
13267;SDS011;6702;47.068;15.458;2022-07-04T03:36:10;6.77;;;6.17;;
13267;SDS011;6702;47.068;15.458;2022-07-04T03:39:15;6.43;;;6.03;;
13267;SDS011;6702;47.068;15.458;2022-07-04T03:42:18;6.83;;;6.20;;
13267;SDS011;6702;47.068;15.458;2022-07-04T03:45:21;6.80;;;6.20;;
13267;SDS011;6702;47.068;15.458;2022-07-04T03:48:25;7.60;;;7.00;;
13267;SDS011;6702;47.068;15.458;2022-07-04T03:51:28;6.63;;;6.03;;
13267;SDS011;6702;47.068;15.458;2022-07-04T03:54:33;6.60;;;6.00;;
13267;SDS011;6702;47.068;15.458;2022-07-04T03:57:36;7.67;;;6.93;;
13267;SDS011;6702;47.068;15.458;2022-07-04T04:00:39;8.30;;;6.53;;
13267;SDS011;6702;47.068;15.458;2022-07-04T04:03:43;6.63;;;5.90;;
13267;SDS011;6702;47.068;15.458;2022-07-04T04:07:04;9.20;;;6.90;;
13267;SDS011;6702;47.068;15.458;2022-07-04T04:10:09;6.20;;;5.60;;
13267;SDS011;6702;47.068;15.458;2022-07-04T04:13:12;7.10;;;6.53;;
13267;SDS011;6702;47.068;15.458;2022-07-04T04:16:15;7.07;;;6.47;;
13267;SDS011;6702;47.068;15.458;2022-07-04T04:19:18;7.33;;;6.63;;
13267;SDS011;6702;47.068;15.458;2022-07-04T04:22:22;7.40;;;6.40;;
13267;SDS011;6702;47.068;15.458;2022-07-04T04:25:27;8.00;;;7.30;;
13267;SDS011;6702;47.068;15.458;2022-07-04T04:28:30;6.87;;;6.37;;
13267;SDS011;6702;47.068;15.458;2022-07-04T04:31:33;7.87;;;7.07;;
13267;SDS011;6702;47.068;15.458;2022-07-04T04:34:37;6.97;;;6.27;;
13267;SDS011;6702;47.068;15.458;2022-07-04T04:37:40;7.97;;;7.37;;
13267;SDS011;6702;47.068;15.458;2022-07-04T04:40:44;6.93;;;6.40;;
13267;SDS011;6702;47.068;15.458;2022-07-04T04:43:48;7.23;;;6.57;;
13267;SDS011;6702;47.068;15.458;2022-07-04T04:46:53;7.97;;;7.30;;
13267;SDS011;6702;47.068;15.458;2022-07-04T04:49:56;7.47;;;6.67;;
13267;SDS011;6702;47.068;15.458;2022-07-04T04:53:00;7.50;;;6.87;;
13267;SDS011;6702;47.068;15.458;2022-07-04T04:56:04;7.80;;;7.10;;
13267;SDS011;6702;47.068;15.458;2022-07-04T04:59:08;8.10;;;7.40;;
13267;SDS011;6702;47.068;15.458;2022-07-04T05:02:11;8.00;;;7.30;;
13267;SDS011;6702;47.068;15.458;2022-07-04T05:05:17;7.63;;;6.83;;
13267;SDS011;6702;47.068;15.458;2022-07-04T05:08:20;7.10;;;6.50;;
13267;SDS011;6702;47.068;15.458;2022-07-04T05:11:27;7.80;;;6.70;;
13267;SDS011;6702;47.068;15.458;2022-07-04T05:14:30;9.10;;;7.17;;
13267;SDS011;6702;47.068;15.458;2022-07-04T05:17:33;7.70;;;6.90;;
13267;SDS011;6702;47.068;15.458;2022-07-04T05:20:37;7.23;;;6.53;;
13267;SDS011;6702;47.068;15.458;2022-07-04T05:23:41;7.70;;;7.10;;
13267;SDS011;6702;47.068;15.458;2022-07-04T05:26:46;8.27;;;6.43;;
13267;SDS011;6702;47.068;15.458;2022-07-04T05:29:49;7.97;;;7.27;;
13267;SDS011;6702;47.068;15.458;2022-07-04T05:32:55;9.87;;;7.00;;
13267;SDS011;6702;47.068;15.458;2022-07-04T05:35:59;7.70;;;7.00;;
13267;SDS011;6702;47.068;15.458;2022-07-04T05:39:02;7.70;;;7.20;;
13267;SDS011;6702;47.068;15.458;2022-07-04T05:42:07;6.93;;;6.23;;
13267;SDS011;6702;47.068;15.458;2022-07-04T05:45:10;8.10;;;7.30;;
13267;SDS011;6702;47.068;15.458;2022-07-04T05:48:13;7.90;;;7.30;;
13267;SDS011;6702;47.068;15.458;2022-07-04T05:51:16;7.90;;;7.13;;
13267;SDS011;6702;47.068;15.458;2022-07-04T05:54:20;11.00;;;8.00;;
13267;SDS011;6702;47.068;15.458;2022-07-04T05:57:24;9.27;;;6.73;;
13267;SDS011;6702;47.068;15.458;2022-07-04T06:00:27;9.00;;;7.30;;
13267;SDS011;6702;47.068;15.458;2022-07-04T06:03:30;7.73;;;7.13;;
13267;SDS011;6702;47.068;15.458;2022-07-04T06:06:34;8.03;;;7.30;;
13267;SDS011;6702;47.068;15.458;2022-07-04T06:09:37;7.23;;;6.63;;
13267;SDS011;6702;47.068;15.458;2022-07-04T06:12:41;7.43;;;6.77;;
13267;SDS011;6702;47.068;15.458;2022-07-04T06:15:44;6.93;;;6.40;;
13267;SDS011;6702;47.068;15.458;2022-07-04T06:18:48;7.33;;;6.67;;
13267;SDS011;6702;47.068;15.458;2022-07-04T06:21:51;9.53;;;7.77;;
13267;SDS011;6702;47.068;15.458;2022-07-04T06:24:54;7.50;;;6.83;;
13267;SDS011;6702;47.068;15.458;2022-07-04T06:27:58;7.63;;;6.80;;
13267;SDS011;6702;47.068;15.458;2022-07-04T06:31:02;9.60;;;8.03;;
13267;SDS011;6702;47.068;15.458;2022-07-04T06:34:06;8.63;;;7.20;;
13267;SDS011;6702;47.068;15.458;2022-07-04T06:37:27;7.80;;;7.10;;
13267;SDS011;6702;47.068;15.458;2022-07-04T06:40:30;7.20;;;6.53;;
13267;SDS011;6702;47.068;15.458;2022-07-04T06:43:34;7.63;;;7.00;;
13267;SDS011;6702;47.068;15.458;2022-07-04T06:46:38;7.67;;;6.97;;
13267;SDS011;6702;47.068;15.458;2022-07-04T06:49:41;7.30;;;6.70;;
13267;SDS011;6702;47.068;15.458;2022-07-04T06:52:44;7.22;;;6.63;;
13267;SDS011;6702;47.068;15.458;2022-07-04T06:55:48;9.90;;;6.53;;
13267;SDS011;6702;47.068;15.458;2022-07-04T06:58:52;6.55;;;6.00;;
13267;SDS011;6702;47.068;15.458;2022-07-04T07:01:55;7.28;;;6.65;;
13267;SDS011;6702;47.068;15.458;2022-07-04T07:05:01;7.68;;;6.97;;
13267;SDS011;6702;47.068;15.458;2022-07-04T07:08:08;7.30;;;6.80;;
13267;SDS011;6702;47.068;15.458;2022-07-04T07:11:11;7.68;;;6.78;;
13267;SDS011;6702;47.068;15.458;2022-07-04T07:14:21;7.82;;;6.93;;
13267;SDS011;6702;47.068;15.458;2022-07-04T07:17:24;7.50;;;6.90;;
13267;SDS011;6702;47.068;15.458;2022-07-04T07:20:27;6.80;;;6.20;;
13267;SDS011;6702;47.068;15.458;2022-07-04T07:23:31;12.15;;;7.32;;
13267;SDS011;6702;47.068;15.458;2022-07-04T07:26:34;7.32;;;6.78;;
13267;SDS011;6702;47.068;15.458;2022-07-04T07:29:38;8.70;;;6.75;;
13267;SDS011;6702;47.068;15.458;2022-07-04T07:32:42;9.32;;;6.90;;
13267;SDS011;6702;47.068;15.458;2022-07-04T07:35:45;10.43;;;7.28;;
13267;SDS011;6702;47.068;15.458;2022-07-04T07:38:48;8.32;;;7.50;;
13267;SDS011;6702;47.068;15.458;2022-07-04T07:41:51;6.63;;;6.03;;
13267;SDS011;6702;47.068;15.458;2022-07-04T07:44:55;6.07;;;5.57;;
13267;SDS011;6702;47.068;15.458;2022-07-04T07:47:59;5.95;;;5.57;;
13267;SDS011;6702;47.068;15.458;2022-07-04T07:51:02;6.68;;;5.70;;
13267;SDS011;6702;47.068;15.458;2022-07-04T07:54:05;5.22;;;4.80;;
13267;SDS011;6702;47.068;15.458;2022-07-04T07:57:18;5.10;;;4.80;;
13267;SDS011;6702;47.068;15.458;2022-07-04T08:00:23;4.57;;;4.28;;
13267;SDS011;6702;47.068;15.458;2022-07-04T08:03:46;4.30;;;4.00;;
13267;SDS011;6702;47.068;15.458;2022-07-04T08:07:12;4.50;;;3.95;;
13267;SDS011;6702;47.068;15.458;2022-07-04T08:10:24;4.82;;;4.53;;
13267;SDS011;6702;47.068;15.458;2022-07-04T08:13:27;4.07;;;3.70;;
13267;SDS011;6702;47.068;15.458;2022-07-04T08:16:32;4.07;;;3.75;;
13267;SDS011;6702;47.068;15.458;2022-07-04T08:19:55;3.90;;;3.60;;
13267;SDS011;6702;47.068;15.458;2022-07-04T08:22:58;4.90;;;3.50;;
13267;SDS011;6702;47.068;15.458;2022-07-04T08:26:02;4.35;;;3.90;;
13267;SDS011;6702;47.068;15.458;2022-07-04T08:29:05;4.80;;;4.32;;
13267;SDS011;6702;47.068;15.458;2022-07-04T08:32:09;4.80;;;4.50;;
13267;SDS011;6702;47.068;15.458;2022-07-04T08:35:13;4.80;;;4.30;;
13267;SDS011;6702;47.068;15.458;2022-07-04T08:38:16;4.93;;;4.53;;
13267;SDS011;6702;47.068;15.458;2022-07-04T08:41:20;5.90;;;5.35;;
13267;SDS011;6702;47.068;15.458;2022-07-04T08:44:25;5.07;;;4.68;;
13267;SDS011;6702;47.068;15.458;2022-07-04T08:47:32;8.40;;;5.10;;
13267;SDS011;6702;47.068;15.458;2022-07-04T08:50:37;4.50;;;4.18;;
13267;SDS011;6702;47.068;15.458;2022-07-04T08:53:45;5.55;;;4.75;;
13267;SDS011;6702;47.068;15.458;2022-07-04T08:56:53;5.28;;;4.88;;
13267;SDS011;6702;47.068;15.458;2022-07-04T09:00:15;4.85;;;4.45;;
13267;SDS011;6702;47.068;15.458;2022-07-04T09:03:20;8.68;;;4.78;;
13267;SDS011;6702;47.068;15.458;2022-07-04T09:06:24;4.88;;;4.57;;
13267;SDS011;6702;47.068;15.458;2022-07-04T09:09:28;6.97;;;5.00;;
13267;SDS011;6702;47.068;15.458;2022-07-04T09:12:34;6.85;;;4.68;;
13267;SDS011;6702;47.068;15.458;2022-07-04T09:15:57;4.50;;;4.20;;
13267;SDS011;6702;47.068;15.458;2022-07-04T09:19:03;4.88;;;4.18;;
13267;SDS011;6702;47.068;15.458;2022-07-04T09:22:11;4.90;;;4.43;;
13267;SDS011;6702;47.068;15.458;2022-07-04T09:25:16;5.90;;;5.40;;
13267;SDS011;6702;47.068;15.458;2022-07-04T09:28:26;5.35;;;4.90;;
13267;SDS011;6702;47.068;15.458;2022-07-04T09:31:30;9.27;;;5.45;;
13267;SDS011;6702;47.068;15.458;2022-07-04T09:34:35;6.40;;;4.75;;
13267;SDS011;6702;47.068;15.458;2022-07-04T09:37:39;5.60;;;5.10;;
13267;SDS011;6702;47.068;15.458;2022-07-04T09:40:48;5.28;;;4.57;;
13267;SDS011;6702;47.068;15.458;2022-07-04T09:44:12;6.05;;;5.55;;
13267;SDS011;6702;47.068;15.458;2022-07-04T09:47:19;5.50;;;5.00;;
13267;SDS011;6702;47.068;15.458;2022-07-04T09:50:26;5.82;;;5.32;;
13267;SDS011;6702;47.068;15.458;2022-07-04T09:53:30;5.50;;;5.10;;
13267;SDS011;6702;47.068;15.458;2022-07-04T09:56:38;5.93;;;5.53;;
13267;SDS011;6702;47.068;15.458;2022-07-04T09:59:42;5.80;;;5.30;;
13267;SDS011;6702;47.068;15.458;2022-07-04T10:02:46;6.05;;;5.55;;
13267;SDS011;6702;47.068;15.458;2022-07-04T10:06:03;6.18;;;5.57;;
13267;SDS011;6702;47.068;15.458;2022-07-04T10:09:12;5.13;;;4.72;;
13267;SDS011;6702;47.068;15.458;2022-07-04T10:12:24;5.80;;;5.40;;
13267;SDS011;6702;47.068;15.458;2022-07-04T10:15:28;6.50;;;6.00;;
13267;SDS011;6702;47.068;15.458;2022-07-04T10:18:31;6.40;;;5.47;;
13267;SDS011;6702;47.068;15.458;2022-07-04T10:21:37;6.10;;;5.68;;
13267;SDS011;6702;47.068;15.458;2022-07-04T10:24:40;6.20;;;5.70;;
13267;SDS011;6702;47.068;15.458;2022-07-04T10:27:43;6.60;;;5.90;;
13267;SDS011;6702;47.068;15.458;2022-07-04T10:30:50;7.53;;;5.13;;
13267;SDS011;6702;47.068;15.458;2022-07-04T10:33:55;6.15;;;5.50;;
13267;SDS011;6702;47.068;15.458;2022-07-04T10:37:01;6.15;;;5.30;;
13267;SDS011;6702;47.068;15.458;2022-07-04T10:40:05;6.05;;;5.65;;
13267;SDS011;6702;47.068;15.458;2022-07-04T10:46:55;6.00;;;5.60;;
13267;SDS011;6702;47.068;15.458;2022-07-04T10:49:58;5.72;;;5.22;;
13267;SDS011;6702;47.068;15.458;2022-07-04T10:53:09;6.10;;;5.63;;
13267;SDS011;6702;47.068;15.458;2022-07-04T10:59:37;5.50;;;5.00;;
13267;SDS011;6702;47.068;15.458;2022-07-04T11:02:41;6.05;;;5.38;;
13267;SDS011;6702;47.068;15.458;2022-07-04T11:05:45;5.28;;;4.78;;
13267;SDS011;6702;47.068;15.458;2022-07-04T11:09:11;4.95;;;4.55;;
13267;SDS011;6702;47.068;15.458;2022-07-04T11:12:16;5.65;;;5.18;;
13267;SDS011;6702;47.068;15.458;2022-07-04T11:15:28;5.90;;;5.30;;
13267;SDS011;6702;47.068;15.458;2022-07-04T11:19:05;5.35;;;4.95;;
13267;SDS011;6702;47.068;15.458;2022-07-04T11:22:08;5.45;;;5.00;;
13267;SDS011;6702;47.068;15.458;2022-07-04T11:25:13;6.28;;;5.85;;
13267;SDS011;6702;47.068;15.458;2022-07-04T11:28:17;6.65;;;5.40;;
13267;SDS011;6702;47.068;15.458;2022-07-04T11:31:42;5.68;;;5.18;;
13267;SDS011;6702;47.068;15.458;2022-07-04T11:34:46;6.28;;;5.68;;
13267;SDS011;6702;47.068;15.458;2022-07-04T11:37:55;5.43;;;5.00;;
13267;SDS011;6702;47.068;15.458;2022-07-04T11:41:00;5.70;;;5.32;;
13267;SDS011;6702;47.068;15.458;2022-07-04T11:44:23;4.65;;;4.30;;
13267;SDS011;6702;47.068;15.458;2022-07-04T11:47:44;4.95;;;4.65;;
13267;SDS011;6702;47.068;15.458;2022-07-04T11:50:48;4.40;;;4.10;;
13267;SDS011;6702;47.068;15.458;2022-07-04T11:53:55;4.78;;;4.20;;
13267;SDS011;6702;47.068;15.458;2022-07-04T11:57:28;4.75;;;4.45;;
13267;SDS011;6702;47.068;15.458;2022-07-04T12:00:35;4.82;;;4.53;;
13267;SDS011;6702;47.068;15.458;2022-07-04T12:03:38;4.28;;;3.88;;
13267;SDS011;6702;47.068;15.458;2022-07-04T12:06:42;4.32;;;4.13;;
13267;SDS011;6702;47.068;15.458;2022-07-04T12:09:46;5.05;;;4.65;;
13267;SDS011;6702;47.068;15.458;2022-07-04T12:12:51;4.68;;;4.38;;
13267;SDS011;6702;47.068;15.458;2022-07-04T12:15:55;4.80;;;4.38;;
13267;SDS011;6702;47.068;15.458;2022-07-04T12:19:07;5.53;;;5.13;;
13267;SDS011;6702;47.068;15.458;2022-07-04T12:22:11;4.70;;;4.40;;
13267;SDS011;6702;47.068;15.458;2022-07-04T12:25:22;4.85;;;4.45;;
13267;SDS011;6702;47.068;15.458;2022-07-04T12:28:33;5.35;;;4.90;;
13267;SDS011;6702;47.068;15.458;2022-07-04T12:31:38;5.35;;;4.93;;
13267;SDS011;6702;47.068;15.458;2022-07-04T12:34:42;5.03;;;4.63;;
13267;SDS011;6702;47.068;15.458;2022-07-04T12:37:59;5.30;;;4.90;;
13267;SDS011;6702;47.068;15.458;2022-07-04T12:41:03;4.95;;;4.65;;
13267;SDS011;6702;47.068;15.458;2022-07-04T12:44:09;4.88;;;4.57;;
13267;SDS011;6702;47.068;15.458;2022-07-04T12:47:23;5.72;;;4.88;;
13267;SDS011;6702;47.068;15.458;2022-07-04T12:50:44;5.78;;;5.28;;
13267;SDS011;6702;47.068;15.458;2022-07-04T12:53:49;5.55;;;5.07;;
13267;SDS011;6702;47.068;15.458;2022-07-04T12:57:01;5.90;;;5.28;;
13267;SDS011;6702;47.068;15.458;2022-07-04T13:00:08;5.70;;;5.30;;
13267;SDS011;6702;47.068;15.458;2022-07-04T13:03:33;5.78;;;5.35;;
13267;SDS011;6702;47.068;15.458;2022-07-04T13:06:36;5.78;;;5.38;;
13267;SDS011;6702;47.068;15.458;2022-07-04T13:09:41;6.30;;;5.20;;
13267;SDS011;6702;47.068;15.458;2022-07-04T13:12:45;5.60;;;5.10;;
13267;SDS011;6702;47.068;15.458;2022-07-04T13:15:49;5.60;;;5.20;;
13267;SDS011;6702;47.068;15.458;2022-07-04T13:18:52;5.60;;;5.20;;
13267;SDS011;6702;47.068;15.458;2022-07-04T13:21:56;6.00;;;5.50;;
13267;SDS011;6702;47.068;15.458;2022-07-04T13:24:59;5.82;;;5.45;;
13267;SDS011;6702;47.068;15.458;2022-07-04T13:28:05;5.55;;;4.65;;
13267;SDS011;6702;47.068;15.458;2022-07-04T13:31:09;6.00;;;5.50;;
13267;SDS011;6702;47.068;15.458;2022-07-04T13:34:13;7.25;;;5.70;;
13267;SDS011;6702;47.068;15.458;2022-07-04T13:37:16;6.40;;;5.90;;
13267;SDS011;6702;47.068;15.458;2022-07-04T13:40:20;5.57;;;5.07;;
13267;SDS011;6702;47.068;15.458;2022-07-04T13:43:23;6.03;;;5.53;;
13267;SDS011;6702;47.068;15.458;2022-07-04T13:46:29;5.70;;;5.20;;
13267;SDS011;6702;47.068;15.458;2022-07-04T13:49:36;5.88;;;5.47;;
13267;SDS011;6702;47.068;15.458;2022-07-04T13:52:40;5.50;;;5.10;;
13267;SDS011;6702;47.068;15.458;2022-07-04T13:55:44;6.03;;;5.00;;
13267;SDS011;6702;47.068;15.458;2022-07-04T13:58:48;5.93;;;5.35;;
13267;SDS011;6702;47.068;15.458;2022-07-04T14:01:53;5.82;;;5.43;;
13267;SDS011;6702;47.068;15.458;2022-07-04T14:04:56;7.72;;;6.25;;
13267;SDS011;6702;47.068;15.458;2022-07-04T14:07:59;5.70;;;5.30;;
13267;SDS011;6702;47.068;15.458;2022-07-04T14:11:02;6.20;;;5.80;;
13267;SDS011;6702;47.068;15.458;2022-07-04T14:14:06;5.85;;;5.45;;
13267;SDS011;6702;47.068;15.458;2022-07-04T14:17:10;12.50;;;5.93;;
13267;SDS011;6702;47.068;15.458;2022-07-04T14:20:33;7.20;;;6.50;;
13267;SDS011;6702;47.068;15.458;2022-07-04T14:23:36;6.43;;;5.90;;
13267;SDS011;6702;47.068;15.458;2022-07-04T14:26:43;5.82;;;5.43;;
13267;SDS011;6702;47.068;15.458;2022-07-04T14:29:46;16.80;;;8.35;;
13267;SDS011;6702;47.068;15.458;2022-07-04T14:32:50;6.60;;;6.10;;
13267;SDS011;6702;47.068;15.458;2022-07-04T14:35:53;9.52;;;6.93;;
13267;SDS011;6702;47.068;15.458;2022-07-04T14:38:57;6.30;;;5.70;;
13267;SDS011;6702;47.068;15.458;2022-07-04T14:42:00;6.72;;;6.13;;
13267;SDS011;6702;47.068;15.458;2022-07-04T14:45:03;6.70;;;6.10;;
13267;SDS011;6702;47.068;15.458;2022-07-04T14:48:09;6.05;;;5.50;;
13267;SDS011;6702;47.068;15.458;2022-07-04T14:51:12;6.95;;;4.90;;
13267;SDS011;6702;47.068;15.458;2022-07-04T14:54:16;5.97;;;5.47;;
13267;SDS011;6702;47.068;15.458;2022-07-04T14:57:19;6.00;;;5.60;;
13267;SDS011;6702;47.068;15.458;2022-07-04T15:00:22;6.30;;;5.80;;
13267;SDS011;6702;47.068;15.458;2022-07-04T15:03:26;7.00;;;6.43;;
13267;SDS011;6702;47.068;15.458;2022-07-04T15:06:30;6.63;;;6.22;;
13267;SDS011;6702;47.068;15.458;2022-07-04T15:09:33;6.35;;;5.43;;
13267;SDS011;6702;47.068;15.458;2022-07-04T15:12:36;5.70;;;5.20;;
13267;SDS011;6702;47.068;15.458;2022-07-04T15:15:39;5.85;;;5.45;;
13267;SDS011;6702;47.068;15.458;2022-07-04T15:18:46;5.78;;;5.28;;
13267;SDS011;6702;47.068;15.458;2022-07-04T15:21:49;5.07;;;4.68;;
13267;SDS011;6702;47.068;15.458;2022-07-04T15:25:10;6.03;;;5.32;;
13267;SDS011;6702;47.068;15.458;2022-07-04T15:28:13;5.32;;;4.93;;
13267;SDS011;6702;47.068;15.458;2022-07-04T15:31:16;5.78;;;5.38;;
13267;SDS011;6702;47.068;15.458;2022-07-04T15:34:21;5.90;;;5.40;;
13267;SDS011;6702;47.068;15.458;2022-07-04T15:37:24;5.57;;;5.07;;
13267;SDS011;6702;47.068;15.458;2022-07-04T15:40:33;5.78;;;5.20;;
13267;SDS011;6702;47.068;15.458;2022-07-04T15:43:36;5.35;;;5.03;;
13267;SDS011;6702;47.068;15.458;2022-07-04T15:46:39;4.80;;;4.50;;
13267;SDS011;6702;47.068;15.458;2022-07-04T15:49:58;4.63;;;4.22;;
13267;SDS011;6702;47.068;15.458;2022-07-04T15:53:01;5.25;;;4.75;;
13267;SDS011;6702;47.068;15.458;2022-07-04T15:56:04;5.47;;;5.03;;
13267;SDS011;6702;47.068;15.458;2022-07-04T15:59:07;5.38;;;4.80;;
13267;SDS011;6702;47.068;15.458;2022-07-04T16:02:10;5.15;;;4.78;;
13267;SDS011;6702;47.068;15.458;2022-07-04T16:05:15;5.15;;;4.80;;
13267;SDS011;6702;47.068;15.458;2022-07-04T16:08:18;5.40;;;4.90;;
13267;SDS011;6702;47.068;15.458;2022-07-04T16:11:21;5.05;;;4.65;;
13267;SDS011;6702;47.068;15.458;2022-07-04T16:14:24;5.47;;;5.00;;
13267;SDS011;6702;47.068;15.458;2022-07-04T16:17:28;10.02;;;4.30;;
13267;SDS011;6702;47.068;15.458;2022-07-04T16:20:32;4.88;;;4.57;;
13267;SDS011;6702;47.068;15.458;2022-07-04T16:23:36;4.72;;;4.35;;
13267;SDS011;6702;47.068;15.458;2022-07-04T16:26:39;5.85;;;5.35;;
13267;SDS011;6702;47.068;15.458;2022-07-04T16:29:42;6.35;;;4.60;;
13267;SDS011;6702;47.068;15.458;2022-07-04T16:32:45;4.32;;;4.03;;
13267;SDS011;6702;47.068;15.458;2022-07-04T16:35:50;5.20;;;4.80;;
13267;SDS011;6702;47.068;15.458;2022-07-04T16:38:53;5.50;;;5.03;;
13267;SDS011;6702;47.068;15.458;2022-07-04T16:41:59;5.10;;;4.70;;
13267;SDS011;6702;47.068;15.458;2022-07-04T16:45:03;4.50;;;4.17;;
13267;SDS011;6702;47.068;15.458;2022-07-04T16:48:08;5.13;;;4.73;;
13267;SDS011;6702;47.068;15.458;2022-07-04T16:51:13;4.93;;;4.53;;
13267;SDS011;6702;47.068;15.458;2022-07-04T16:54:16;7.63;;;3.73;;
13267;SDS011;6702;47.068;15.458;2022-07-04T16:57:19;3.10;;;1.87;;
13267;SDS011;6702;47.068;15.458;2022-07-04T17:00:23;3.03;;;1.53;;
13267;SDS011;6702;47.068;15.458;2022-07-04T17:03:26;11.40;;;1.83;;
13267;SDS011;6702;47.068;15.458;2022-07-04T17:06:30;6.83;;;1.50;;
13267;SDS011;6702;47.068;15.458;2022-07-04T17:09:34;4.47;;;1.70;;
13267;SDS011;6702;47.068;15.458;2022-07-04T17:12:37;4.27;;;2.90;;
13267;SDS011;6702;47.068;15.458;2022-07-04T17:15:41;5.50;;;3.60;;
13267;SDS011;6702;47.068;15.458;2022-07-04T17:18:44;5.80;;;4.00;;
13267;SDS011;6702;47.068;15.458;2022-07-04T17:21:49;4.13;;;3.70;;
13267;SDS011;6702;47.068;15.458;2022-07-04T17:24:52;4.43;;;3.27;;
13267;SDS011;6702;47.068;15.458;2022-07-04T17:27:55;5.03;;;3.53;;
13267;SDS011;6702;47.068;15.458;2022-07-04T17:30:59;3.07;;;2.70;;
13267;SDS011;6702;47.068;15.458;2022-07-04T17:34:02;3.13;;;2.63;;
13267;SDS011;6702;47.068;15.458;2022-07-04T17:37:06;2.87;;;2.57;;
13267;SDS011;6702;47.068;15.458;2022-07-04T17:40:14;5.70;;;3.03;;
13267;SDS011;6702;47.068;15.458;2022-07-04T17:43:31;3.63;;;2.57;;
13267;SDS011;6702;47.068;15.458;2022-07-04T17:46:34;4.43;;;2.20;;
13267;SDS011;6702;47.068;15.458;2022-07-04T17:49:39;2.33;;;1.77;;
13267;SDS011;6702;47.068;15.458;2022-07-04T17:52:44;2.63;;;1.87;;
13267;SDS011;6702;47.068;15.458;2022-07-04T17:55:48;2.97;;;1.80;;
13267;SDS011;6702;47.068;15.458;2022-07-04T17:58:52;2.70;;;1.77;;
13267;SDS011;6702;47.068;15.458;2022-07-04T18:01:55;2.03;;;1.80;;
13267;SDS011;6702;47.068;15.458;2022-07-04T18:04:59;4.03;;;2.40;;
13267;SDS011;6702;47.068;15.458;2022-07-04T18:08:03;4.10;;;1.47;;
13267;SDS011;6702;47.068;15.458;2022-07-04T18:11:07;2.83;;;1.63;;
13267;SDS011;6702;47.068;15.458;2022-07-04T18:14:11;3.20;;;1.80;;
13267;SDS011;6702;47.068;15.458;2022-07-04T18:17:14;3.57;;;1.57;;
13267;SDS011;6702;47.068;15.458;2022-07-04T18:20:17;3.33;;;2.33;;
13267;SDS011;6702;47.068;15.458;2022-07-04T18:23:22;8.47;;;3.03;;
13267;SDS011;6702;47.068;15.458;2022-07-04T18:26:25;3.83;;;2.17;;
13267;SDS011;6702;47.068;15.458;2022-07-04T18:29:28;2.43;;;2.00;;
13267;SDS011;6702;47.068;15.458;2022-07-04T18:32:31;2.57;;;1.80;;
13267;SDS011;6702;47.068;15.458;2022-07-04T18:35:35;3.17;;;1.93;;
13267;SDS011;6702;47.068;15.458;2022-07-04T18:38:45;3.40;;;2.17;;
13267;SDS011;6702;47.068;15.458;2022-07-04T18:41:49;2.07;;;1.87;;
13267;SDS011;6702;47.068;15.458;2022-07-04T18:45:09;3.60;;;2.70;;